createdAt,value
2022-09-14T00:00:02.590Z,3.90
2022-09-14T00:01:24.170Z,2.90
2022-09-14T00:02:02.648Z,1.70
2022-09-14T00:03:02.539Z,5.10
2022-09-14T00:04:02.398Z,5.60
2022-09-14T00:05:02.354Z,4.50
2022-09-14T00:06:02.309Z,4.40
2022-09-14T00:07:02.266Z,5.00
2022-09-14T00:08:02.222Z,3.60
2022-09-14T00:09:02.191Z,5.90
2022-09-14T00:10:02.134Z,4.20
2022-09-14T00:11:02.091Z,5.30
2022-09-14T00:12:02.045Z,3.30
2022-09-14T00:13:02.001Z,4.40
2022-09-14T00:14:01.968Z,5.60
2022-09-14T00:15:01.915Z,1.90
2022-09-14T00:16:01.887Z,3.10
2022-09-14T00:17:01.900Z,4.80
2022-09-14T00:18:01.781Z,5.30
2022-09-14T00:19:01.737Z,5.50
2022-09-14T00:20:01.693Z,4.70
2022-09-14T00:21:01.649Z,4.20
2022-09-14T00:22:01.605Z,3.80
2022-09-14T00:23:01.566Z,3.30
2022-09-14T00:24:01.520Z,3.30
2022-09-14T00:25:01.476Z,3.70
2022-09-14T00:26:01.428Z,4.80
2022-09-14T00:27:01.387Z,3.40
2022-09-14T00:28:01.392Z,4.70
2022-09-14T00:29:01.298Z,3.80
2022-09-14T00:30:01.250Z,4.10
2022-09-14T00:31:01.212Z,4.00
2022-09-14T00:32:01.397Z,4.10
2022-09-14T00:33:01.123Z,5.30
2022-09-14T00:34:01.075Z,4.20
2022-09-14T00:35:01.034Z,4.40
2022-09-14T00:36:00.987Z,2.80
2022-09-14T00:37:00.944Z,4.50
2022-09-14T00:38:00.898Z,5.50
2022-09-14T00:39:01.055Z,5.40
2022-09-14T00:40:00.845Z,6.10
2022-09-14T00:41:00.768Z,4.30
2022-09-14T00:42:00.727Z,4.20
2022-09-14T00:43:00.683Z,6.20
2022-09-14T00:44:00.642Z,3.60
2022-09-14T00:45:00.592Z,5.00
2022-09-14T00:46:00.599Z,4.70
2022-09-14T00:47:00.506Z,3.80
2022-09-14T00:48:00.561Z,3.30
2022-09-14T00:49:00.416Z,5.50
2022-09-14T00:50:00.372Z,4.30
2022-09-14T00:51:00.327Z,6.90
2022-09-14T00:52:00.281Z,4.10
2022-09-14T00:53:00.238Z,3.90
2022-09-14T00:54:00.193Z,5.80
2022-09-14T00:55:00.165Z,3.40
2022-09-14T00:56:00.108Z,2.50
2022-09-14T00:57:00.071Z,4.70
2022-09-14T00:58:00.020Z,4.00
2022-09-14T00:58:59.979Z,4.80
2022-09-14T00:59:59.928Z,5.10
2022-09-14T01:00:59.919Z,3.80
2022-09-14T01:01:59.896Z,5.00
2022-09-14T01:02:59.797Z,4.40
2022-09-14T01:03:59.769Z,3.00
2022-09-14T01:04:59.707Z,3.20
2022-09-14T01:05:59.662Z,3.90
2022-09-14T01:07:59.576Z,3.80
2022-09-14T01:08:59.532Z,3.20
2022-09-14T01:09:59.487Z,5.10
2022-09-14T01:10:59.442Z,6.50
2022-09-14T01:11:59.398Z,6.60
2022-09-14T01:12:59.353Z,4.20
2022-09-14T01:13:59.310Z,4.00
2022-09-14T01:14:59.263Z,3.50
2022-09-14T01:15:59.296Z,4.40
2022-09-14T01:16:59.176Z,7.90
2022-09-14T01:17:59.140Z,4.70
2022-09-14T01:18:59.140Z,3.90
2022-09-14T01:19:59.064Z,4.70
2022-09-14T01:20:59.000Z,4.00
2022-09-14T01:21:58.955Z,6.40
2022-09-14T01:22:58.912Z,4.50
2022-09-14T01:23:58.868Z,5.30
2022-09-14T01:24:58.822Z,6.50
2022-09-14T01:25:58.779Z,6.00
2022-09-14T01:26:58.736Z,5.00
2022-09-14T01:27:58.691Z,5.80
2022-09-14T01:28:58.645Z,4.20
2022-09-14T01:29:58.604Z,3.80
2022-09-14T01:30:58.557Z,4.30
2022-09-14T01:31:58.650Z,6.00
2022-09-14T01:32:58.466Z,5.90
2022-09-14T01:33:58.427Z,4.90
2022-09-14T01:34:58.385Z,5.30
2022-09-14T01:35:58.358Z,5.00
2022-09-14T01:36:58.289Z,6.00
2022-09-14T01:37:58.253Z,6.00
2022-09-14T01:38:58.206Z,4.70
2022-09-14T01:39:58.269Z,6.50
2022-09-14T01:40:58.125Z,4.10
2022-09-14T01:41:58.078Z,7.00
2022-09-14T01:42:58.027Z,5.00
2022-09-14T01:43:57.984Z,4.90
2022-09-14T01:44:57.936Z,5.90
2022-09-14T01:45:57.982Z,6.60
2022-09-14T01:46:57.848Z,6.80
2022-09-14T01:47:57.805Z,6.50
2022-09-14T01:48:57.759Z,5.30
2022-09-14T01:49:57.715Z,4.40
2022-09-14T01:50:57.672Z,4.50
2022-09-14T01:51:57.646Z,6.10
2022-09-14T01:52:57.586Z,6.00
2022-09-14T01:53:57.539Z,6.20
2022-09-14T01:54:57.495Z,5.20
2022-09-14T01:55:57.450Z,5.70
2022-09-14T01:56:57.403Z,5.40
2022-09-14T01:57:57.360Z,5.40
2022-09-14T01:58:57.319Z,4.20
2022-09-14T01:59:57.282Z,5.40
2022-09-14T02:00:57.264Z,4.50
2022-09-14T02:02:57.141Z,4.00
2022-09-14T02:03:57.095Z,5.00
2022-09-14T02:04:57.050Z,7.10
2022-09-14T02:05:57.005Z,5.50
2022-09-14T02:06:56.962Z,4.60
2022-09-14T02:07:57.021Z,5.10
2022-09-14T02:08:56.870Z,4.80
2022-09-14T02:09:56.824Z,6.80
2022-09-14T02:10:56.787Z,6.50
2022-09-14T02:11:56.737Z,4.80
2022-09-14T02:12:56.693Z,6.40
2022-09-14T02:13:56.647Z,5.70
2022-09-14T02:14:56.604Z,5.90
2022-09-14T02:15:56.645Z,6.80
2022-09-14T02:16:56.517Z,7.10
2022-09-14T02:17:56.479Z,4.00
2022-09-14T02:18:56.426Z,5.00
2022-09-14T02:19:56.381Z,4.90
2022-09-14T02:20:56.337Z,5.80
2022-09-14T02:21:56.294Z,4.90
2022-09-14T02:22:56.252Z,5.40
2022-09-14T02:23:56.220Z,5.20
2022-09-14T02:24:56.160Z,6.30
2022-09-14T02:25:56.121Z,5.10
2022-09-14T02:26:56.072Z,3.00
2022-09-14T02:27:56.026Z,6.20
2022-09-14T02:28:56.000Z,5.00
2022-09-14T02:29:55.933Z,5.30
2022-09-14T02:30:55.893Z,6.40
2022-09-14T02:31:55.877Z,6.60
2022-09-14T02:32:55.803Z,5.10
2022-09-14T02:33:55.760Z,6.80
2022-09-14T02:34:55.715Z,5.70
2022-09-14T02:35:55.677Z,5.70
2022-09-14T02:36:55.627Z,5.10
2022-09-14T02:37:55.588Z,5.20
2022-09-14T02:38:55.538Z,7.30
2022-09-14T02:39:55.634Z,7.00
2022-09-14T02:40:55.447Z,5.50
2022-09-14T02:41:55.401Z,7.20
2022-09-14T02:42:55.360Z,4.20
2022-09-14T02:43:55.316Z,5.00
2022-09-14T02:44:55.270Z,6.00
2022-09-14T02:45:55.222Z,5.60
2022-09-14T02:46:55.330Z,5.70
2022-09-14T02:47:55.134Z,4.50
2022-09-14T02:48:55.093Z,5.20
2022-09-14T02:49:55.045Z,5.10
2022-09-14T02:50:55.006Z,5.30
2022-09-14T02:51:54.956Z,4.70
2022-09-14T02:52:54.911Z,6.00
2022-09-14T02:53:54.866Z,7.10
2022-09-14T02:54:54.822Z,7.60
2022-09-14T02:55:54.794Z,4.30
2022-09-14T02:56:54.739Z,3.80
2022-09-14T02:57:54.690Z,3.00
2022-09-14T02:58:54.648Z,3.70
2022-09-14T02:59:54.608Z,3.80
2022-09-14T03:00:54.611Z,5.30
2022-09-14T03:01:54.571Z,2.40
2022-09-14T03:02:54.466Z,4.30
2022-09-14T03:03:54.421Z,4.90
2022-09-14T03:04:54.375Z,5.30
2022-09-14T03:05:54.331Z,7.30
2022-09-14T03:06:54.294Z,3.90
2022-09-14T03:07:54.245Z,5.90
2022-09-14T03:08:54.197Z,6.20
2022-09-14T03:09:54.154Z,5.30
2022-09-14T03:10:54.110Z,5.10
2022-09-14T03:11:54.081Z,5.90
2022-09-14T03:12:54.024Z,5.60
2022-09-14T03:13:53.983Z,5.50
2022-09-14T03:14:53.931Z,5.20
2022-09-14T03:15:53.938Z,3.90
2022-09-14T03:16:53.843Z,7.00
2022-09-14T03:17:53.796Z,4.50
2022-09-14T03:18:53.762Z,5.20
2022-09-14T03:19:53.707Z,7.60
2022-09-14T03:20:53.663Z,6.00
2022-09-14T03:21:53.626Z,5.20
2022-09-14T03:22:53.576Z,5.40
2022-09-14T03:23:53.529Z,4.40
2022-09-14T03:24:53.495Z,6.50
2022-09-14T03:25:53.440Z,4.20
2022-09-14T03:26:53.399Z,5.60
2022-09-14T03:27:53.367Z,6.70
2022-09-14T03:28:53.305Z,5.80
2022-09-14T03:29:53.263Z,4.70
2022-09-14T03:30:53.280Z,5.80
2022-09-14T03:31:53.229Z,7.50
2022-09-14T03:32:53.128Z,5.30
2022-09-14T03:33:53.084Z,5.60
2022-09-14T03:34:53.042Z,5.60
2022-09-14T03:35:52.995Z,6.30
2022-09-14T03:36:52.952Z,6.30
2022-09-14T03:37:52.903Z,4.30
2022-09-14T03:38:52.860Z,6.30
2022-09-14T03:39:52.848Z,6.20
2022-09-14T03:40:52.778Z,5.00
2022-09-14T03:41:52.725Z,5.30
2022-09-14T03:42:52.682Z,3.60
2022-09-14T03:43:52.657Z,6.50
2022-09-14T03:44:52.594Z,5.00
2022-09-14T03:45:52.547Z,4.70
2022-09-14T03:46:52.565Z,5.10
2022-09-14T03:47:52.460Z,5.30
2022-09-14T03:48:52.414Z,4.70
2022-09-14T03:49:52.369Z,5.80
2022-09-14T03:50:52.325Z,5.50
2022-09-14T03:51:55.267Z,6.60
2022-09-14T03:52:52.236Z,5.70
2022-09-14T03:53:52.209Z,5.30
2022-09-14T03:54:52.146Z,7.20
2022-09-14T03:55:52.100Z,7.20
2022-09-14T03:56:52.055Z,5.10
2022-09-14T03:57:52.011Z,6.00
2022-09-14T03:58:51.969Z,5.30
2022-09-14T03:59:51.939Z,6.20
2022-09-14T04:00:51.885Z,6.10
2022-09-14T04:01:51.866Z,5.60
2022-09-14T04:02:51.835Z,6.80
2022-09-14T04:04:51.698Z,4.70
2022-09-14T04:05:51.656Z,6.40
2022-09-14T04:06:51.611Z,5.30
2022-09-14T04:07:51.567Z,7.60
2022-09-14T04:08:51.518Z,6.80
2022-09-14T04:09:51.480Z,6.90
2022-09-14T04:10:51.430Z,8.60
2022-09-14T04:11:51.394Z,5.80
2022-09-14T04:12:51.342Z,5.60
2022-09-14T04:13:51.322Z,5.20
2022-09-14T04:14:51.251Z,5.40
2022-09-14T04:15:51.271Z,4.00
2022-09-14T04:16:51.164Z,5.60
2022-09-14T04:17:51.117Z,5.20
2022-09-14T04:18:51.078Z,3.90
2022-09-14T04:19:51.031Z,6.10
2022-09-14T04:20:50.987Z,5.80
2022-09-14T04:21:50.938Z,5.00
2022-09-14T04:24:13.555Z,4.20
2022-09-14T04:24:51.009Z,4.20
2022-09-14T04:25:50.762Z,8.00
2022-09-14T04:26:50.716Z,6.90
2022-09-14T04:28:04.239Z,6.20
2022-09-14T04:28:50.624Z,4.10
2022-09-14T04:30:50.570Z,6.60
2022-09-14T04:31:50.596Z,3.30
2022-09-14T04:32:50.447Z,5.00
2022-09-14T04:33:50.403Z,5.00
2022-09-14T04:34:50.362Z,6.80
2022-09-14T04:35:50.313Z,9.90
2022-09-14T04:36:50.505Z,6.40
2022-09-14T04:37:50.224Z,4.80
2022-09-14T04:38:50.258Z,3.70
2022-09-14T04:39:50.186Z,5.40
2022-09-14T04:40:50.090Z,4.80
2022-09-14T04:41:50.044Z,4.70
2022-09-14T04:42:50.002Z,5.50
2022-09-14T04:43:49.957Z,6.40
2022-09-14T04:44:49.914Z,9.00
2022-09-14T04:45:49.865Z,5.70
2022-09-14T04:46:49.872Z,6.50
2022-09-14T04:47:49.795Z,7.10
2022-09-14T04:48:49.764Z,5.70
2022-09-14T04:49:49.687Z,4.90
2022-09-14T04:50:49.644Z,5.40
2022-09-14T04:51:49.600Z,5.00
2022-09-14T04:52:49.552Z,6.10
2022-09-14T04:53:49.508Z,3.30
2022-09-14T04:54:49.465Z,3.10
2022-09-14T04:55:49.419Z,6.10
2022-09-14T04:56:49.373Z,3.80
2022-09-14T04:57:49.330Z,5.20
2022-09-14T04:58:51.603Z,7.40
2022-09-14T04:59:49.240Z,4.00
2022-09-14T05:00:49.195Z,4.50
2022-09-14T05:01:49.189Z,5.60
2022-09-14T05:02:49.186Z,4.30
2022-09-14T05:03:49.088Z,5.20
2022-09-14T05:04:49.016Z,6.20
2022-09-14T05:05:48.969Z,6.70
2022-09-14T05:06:48.927Z,5.70
2022-09-14T05:07:48.881Z,5.70
2022-09-14T05:08:48.845Z,5.60
2022-09-14T05:09:48.796Z,9.60
2022-09-14T05:10:48.749Z,5.90
2022-09-14T05:11:48.702Z,5.00
2022-09-14T05:12:48.660Z,5.90
2022-09-14T05:13:50.283Z,5.10
2022-09-14T05:14:48.568Z,6.60
2022-09-14T05:15:48.615Z,5.30
2022-09-14T05:16:48.490Z,5.20
2022-09-14T05:17:48.436Z,4.70
2022-09-14T05:18:48.473Z,5.50
2022-09-14T05:19:48.489Z,4.60
2022-09-14T05:20:48.301Z,7.30
2022-09-14T05:21:48.257Z,6.70
2022-09-14T05:22:48.211Z,7.40
2022-09-14T05:23:48.168Z,5.90
2022-09-14T05:24:48.123Z,6.00
2022-09-14T05:25:48.081Z,6.20
2022-09-14T05:26:48.038Z,8.20
2022-09-14T05:27:47.990Z,8.60
2022-09-14T05:28:47.946Z,7.80
2022-09-14T05:29:47.904Z,5.60
2022-09-14T05:30:47.918Z,6.00
2022-09-14T05:31:47.814Z,6.10
2022-09-14T05:32:47.762Z,7.70
2022-09-14T05:33:47.808Z,6.20
2022-09-14T05:34:47.672Z,7.20
2022-09-14T05:35:47.644Z,8.10
2022-09-14T05:36:47.583Z,5.80
2022-09-14T05:37:47.536Z,7.60
2022-09-14T05:38:47.492Z,6.60
2022-09-14T05:39:47.480Z,6.50
2022-09-14T05:40:47.405Z,5.90
2022-09-14T05:41:47.359Z,5.90
2022-09-14T05:42:47.316Z,6.00
2022-09-14T05:43:47.266Z,7.20
2022-09-14T05:44:47.223Z,7.30
2022-09-14T05:45:47.176Z,5.30
2022-09-14T05:46:47.190Z,7.80
2022-09-14T05:47:47.087Z,6.20
2022-09-14T05:48:47.044Z,6.70
2022-09-14T05:49:46.998Z,8.00
2022-09-14T05:50:46.956Z,7.40
2022-09-14T05:51:46.927Z,7.30
2022-09-14T05:52:46.869Z,7.20
2022-09-14T05:53:46.816Z,5.40
2022-09-14T05:54:46.778Z,7.10
2022-09-14T05:55:46.733Z,6.70
2022-09-14T05:56:46.691Z,6.50
2022-09-14T05:57:46.636Z,5.40
2022-09-14T05:58:46.595Z,5.50
2022-09-14T05:59:46.553Z,5.10
2022-09-14T06:00:46.502Z,5.40
2022-09-14T06:01:46.509Z,8.20
2022-09-14T06:02:46.412Z,6.90
2022-09-14T06:03:46.373Z,13.10
2022-09-14T06:04:46.325Z,7.10
2022-09-14T06:05:46.367Z,9.30
2022-09-14T06:06:56.141Z,9.30
2022-09-14T06:07:46.226Z,7.90
2022-09-14T06:08:46.142Z,7.00
2022-09-14T06:09:46.101Z,5.10
2022-09-14T06:10:46.053Z,6.40
2022-09-14T06:11:46.008Z,8.20
2022-09-14T06:12:45.961Z,6.90
2022-09-14T06:13:45.916Z,7.60
2022-09-14T06:14:45.872Z,8.20
2022-09-14T06:15:45.829Z,6.70
2022-09-14T06:16:45.823Z,9.60
2022-09-14T06:17:45.736Z,7.20
2022-09-14T06:18:45.693Z,7.20
2022-09-14T06:19:45.646Z,6.10
2022-09-14T06:20:45.604Z,5.60
2022-09-14T06:21:45.555Z,5.70
2022-09-14T06:22:45.514Z,8.00
2022-09-14T06:23:45.483Z,7.70
2022-09-14T06:24:45.424Z,8.10
2022-09-14T06:25:45.378Z,5.30
2022-09-14T06:26:45.334Z,7.60
2022-09-14T06:27:45.284Z,9.20
2022-09-14T06:28:45.241Z,6.50
2022-09-14T06:29:45.206Z,6.80
2022-09-14T06:30:45.159Z,6.70
2022-09-14T06:31:45.105Z,7.70
2022-09-14T06:32:45.067Z,10.20
2022-09-14T06:33:45.017Z,6.70
2022-09-14T06:34:44.976Z,9.70
2022-09-14T06:35:44.929Z,8.60
2022-09-14T06:36:44.891Z,7.90
2022-09-14T06:37:44.858Z,9.20
2022-09-14T06:38:44.790Z,10.80
2022-09-14T06:39:44.816Z,6.80
2022-09-14T06:40:44.701Z,9.20
2022-09-14T06:41:44.660Z,8.70
2022-09-14T06:42:44.614Z,9.70
2022-09-14T06:43:44.564Z,10.60
2022-09-14T06:44:44.519Z,9.30
2022-09-14T06:45:44.476Z,9.30
2022-09-14T06:46:47.500Z,8.20
2022-09-14T06:47:44.388Z,9.90
2022-09-14T06:48:44.340Z,8.40
2022-09-14T06:49:44.294Z,8.30
2022-09-14T06:50:44.248Z,8.10
2022-09-14T06:51:44.201Z,11.30
2022-09-14T06:52:44.159Z,7.60
2022-09-14T06:53:44.188Z,12.00
2022-09-14T06:54:44.070Z,10.60
2022-09-14T06:55:44.041Z,9.80
2022-09-14T06:56:43.978Z,8.60
2022-09-14T06:57:43.931Z,7.00
2022-09-14T06:58:43.889Z,8.70
2022-09-14T06:59:43.850Z,7.40
2022-09-14T07:00:43.799Z,10.50
2022-09-14T07:01:43.751Z,8.60
2022-09-14T07:02:43.830Z,8.80
2022-09-14T07:03:43.662Z,9.60
2022-09-14T07:04:43.622Z,10.00
2022-09-14T07:05:43.572Z,7.70
2022-09-14T07:06:43.531Z,7.90
2022-09-14T07:07:43.481Z,5.50
2022-09-14T07:08:43.507Z,10.00
2022-09-14T07:09:43.389Z,4.30
2022-09-14T07:10:43.361Z,2.20
2022-09-14T07:11:43.318Z,2.40
2022-09-14T07:12:43.255Z,0.70
2022-09-14T07:13:43.209Z,2.20
2022-09-14T07:14:43.172Z,0.30
2022-09-14T07:15:43.125Z,1.50
2022-09-14T07:16:43.076Z,0.30
2022-09-14T07:17:43.031Z,0.30
2022-09-14T07:18:43.080Z,0.80
2022-09-14T07:19:42.942Z,0.60
2022-09-14T07:20:42.898Z,0.60
2022-09-14T07:21:42.855Z,4.60
2022-09-14T07:22:42.809Z,0.20
2022-09-14T07:23:42.762Z,0.30
2022-09-14T07:24:42.736Z,0.20
2022-09-14T07:25:42.678Z,0.20
2022-09-14T07:26:42.634Z,0.20
2022-09-14T07:27:42.613Z,0.20
2022-09-14T07:28:42.544Z,0.10
2022-09-14T07:29:42.501Z,0.20
2022-09-14T07:30:42.550Z,0.20
2022-09-14T07:31:42.409Z,0.10
2022-09-14T07:32:42.368Z,0.10
2022-09-14T07:33:42.322Z,0.20
2022-09-14T07:34:42.282Z,0.20
2022-09-14T07:35:42.235Z,0.10
2022-09-14T07:36:42.193Z,0.20
2022-09-14T07:37:42.146Z,0.20
2022-09-14T07:38:52.116Z,0.10
2022-09-14T07:40:26.467Z,0.20
2022-09-14T07:41:26.400Z,0.10
2022-09-14T07:42:26.361Z,0.20
2022-09-14T07:43:26.435Z,0.20
2022-09-14T07:44:26.276Z,0.10
2022-09-14T07:45:26.225Z,0.80
2022-09-14T07:46:26.200Z,0.20
2022-09-14T07:47:26.135Z,0.30
2022-09-14T07:48:26.088Z,0.20
2022-09-14T07:49:26.050Z,0.20
2022-09-14T07:50:26.001Z,0.20
2022-09-14T07:51:25.959Z,0.20
2022-09-14T07:52:25.912Z,0.20
2022-09-14T07:53:25.902Z,0.20
2022-09-14T07:54:25.821Z,0.20
2022-09-14T07:55:25.775Z,0.20
2022-09-14T07:56:25.884Z,0.20
2022-09-14T07:57:45.464Z,0.20
2022-09-14T07:58:25.640Z,0.20
2022-09-14T07:59:35.600Z,0.10
2022-09-14T08:00:25.571Z,0.20
2022-09-14T08:01:25.573Z,0.20
2022-09-14T08:02:25.547Z,0.10
2022-09-14T08:03:25.417Z,0.10
2022-09-14T08:04:25.373Z,0.20
2022-09-14T08:05:25.348Z,0.10
2022-09-14T08:06:25.284Z,0.20
2022-09-14T08:07:25.240Z,0.20
2022-09-14T08:08:25.190Z,0.20
2022-09-14T08:09:25.148Z,0.50
2022-09-14T08:10:25.106Z,0.40
2022-09-14T08:11:25.058Z,0.20
2022-09-14T08:12:25.008Z,0.10
2022-09-14T08:13:25.012Z,0.20
2022-09-14T08:14:24.924Z,0.20
2022-09-14T08:15:28.412Z,0.20
2022-09-14T08:16:24.861Z,0.10
2022-09-14T08:17:24.791Z,0.20
2022-09-14T08:18:24.738Z,0.30
2022-09-14T08:19:24.716Z,0.30
2022-09-14T08:20:24.666Z,0.20
2022-09-14T08:21:24.644Z,0.20
2022-09-14T08:22:24.580Z,0.20
2022-09-14T08:23:24.564Z,0.10
2022-09-14T08:24:24.475Z,0.10
2022-09-14T08:25:24.443Z,0.20
2022-09-14T08:26:24.382Z,0.20
2022-09-14T08:27:24.333Z,0.20
2022-09-14T08:28:24.288Z,0.30
2022-09-14T08:29:24.243Z,0.50
2022-09-14T08:30:24.207Z,0.10
2022-09-14T08:31:24.306Z,0.10
2022-09-14T08:32:24.106Z,0.20
2022-09-14T08:33:24.122Z,0.20
2022-09-14T08:34:24.029Z,0.10
2022-09-14T08:35:40.774Z,0.20
2022-09-14T08:36:23.948Z,0.20
2022-09-14T08:37:23.903Z,0.10
2022-09-14T08:38:23.840Z,0.20
2022-09-14T08:39:23.797Z,0.20
2022-09-14T08:40:23.829Z,0.20
2022-09-14T08:41:23.710Z,0.10
2022-09-14T08:42:23.666Z,0.10
2022-09-14T08:43:23.677Z,0.30
2022-09-14T08:44:23.575Z,0.20
2022-09-14T08:45:23.581Z,0.20
2022-09-14T08:46:23.504Z,0.20
2022-09-14T08:47:23.463Z,0.20
2022-09-14T08:48:23.399Z,0.30
2022-09-14T08:49:23.355Z,0.20
2022-09-14T08:50:23.334Z,0.20
2022-09-14T08:51:23.268Z,0.30
2022-09-14T08:52:23.262Z,0.10
2022-09-14T08:53:23.258Z,0.20
2022-09-14T08:54:23.135Z,0.30
2022-09-14T08:55:23.095Z,0.20
2022-09-14T08:56:23.052Z,0.20
2022-09-14T08:57:23.012Z,0.20
2022-09-14T08:58:22.965Z,0.30
2022-09-14T08:59:22.917Z,0.10
2022-09-14T09:00:22.884Z,0.20
2022-09-14T09:01:22.895Z,0.20
2022-09-14T09:02:22.786Z,0.20
2022-09-14T09:03:22.884Z,0.30
2022-09-14T09:04:22.835Z,0.20
2022-09-14T09:05:22.655Z,0.20
2022-09-14T09:06:22.612Z,0.20
2022-09-14T09:07:22.566Z,0.20
2022-09-14T09:08:22.521Z,0.20
2022-09-14T09:09:22.484Z,0.20
2022-09-14T09:10:22.434Z,0.20
2022-09-14T09:11:22.393Z,1.40
2022-09-14T09:12:22.349Z,0.20
2022-09-14T09:13:22.336Z,0.20
2022-09-14T09:14:22.260Z,0.10
2022-09-14T09:15:22.217Z,0.20
2022-09-14T09:16:22.249Z,0.20
2022-09-14T09:17:22.131Z,0.20
2022-09-14T09:18:22.086Z,0.10
2022-09-14T09:19:25.666Z,0.10
2022-09-14T09:20:22.003Z,0.20
2022-09-14T09:21:21.964Z,0.20
2022-09-14T09:22:21.918Z,0.10
2022-09-14T09:23:21.867Z,0.20
2022-09-14T09:24:21.831Z,0.30
2022-09-14T09:25:21.782Z,0.20
2022-09-14T09:26:21.737Z,0.10
2022-09-14T09:27:21.691Z,0.20
2022-09-14T09:28:21.851Z,0.20
2022-09-14T09:29:21.608Z,0.20
2022-09-14T09:30:21.563Z,0.20
2022-09-14T09:31:21.538Z,0.20
2022-09-14T09:32:21.472Z,0.20
2022-09-14T09:33:21.553Z,0.10
2022-09-14T09:34:21.388Z,0.20
2022-09-14T09:35:21.413Z,0.20
2022-09-14T09:36:21.301Z,0.20
2022-09-14T09:37:21.258Z,0.20
2022-09-14T09:38:21.212Z,0.20
2022-09-14T09:39:21.171Z,0.30
2022-09-14T09:40:21.149Z,0.20
2022-09-14T09:41:21.085Z,0.10
2022-09-14T09:42:21.038Z,0.20
2022-09-14T09:43:38.502Z,0.30
2022-09-14T09:44:20.953Z,0.20
2022-09-14T09:45:20.908Z,0.20
2022-09-14T09:46:21.015Z,0.30
2022-09-14T09:47:20.820Z,0.20
2022-09-14T09:48:20.778Z,0.20
2022-09-14T09:49:20.733Z,0.10
2022-09-14T09:50:20.690Z,0.20
2022-09-14T09:51:23.925Z,0.30
2022-09-14T09:52:20.601Z,0.20
2022-09-14T09:53:20.605Z,0.20
2022-09-14T09:54:20.513Z,0.20
2022-09-14T09:55:20.476Z,0.20
2022-09-14T09:56:20.428Z,0.10
2022-09-14T09:57:20.387Z,0.20
2022-09-14T09:58:20.340Z,0.20
2022-09-14T09:59:20.296Z,0.20
2022-09-14T10:00:20.251Z,0.10
2022-09-14T10:01:20.243Z,0.20
2022-09-14T10:02:20.292Z,0.30
2022-09-14T10:03:20.194Z,0.20
2022-09-14T10:04:20.082Z,0.10
2022-09-14T10:05:20.040Z,0.20
2022-09-14T10:06:19.991Z,0.20
2022-09-14T10:07:19.985Z,0.20
2022-09-14T10:08:19.903Z,0.10
2022-09-14T10:09:19.862Z,0.20
2022-09-14T10:10:19.816Z,0.30
2022-09-14T10:11:19.775Z,0.20
2022-09-14T10:12:19.729Z,0.20
2022-09-14T10:13:19.689Z,0.20
2022-09-14T10:14:19.643Z,0.20
2022-09-14T10:15:19.605Z,0.20
2022-09-14T10:16:19.661Z,0.20
2022-09-14T10:17:19.514Z,0.20
2022-09-14T10:18:19.470Z,0.20
2022-09-14T10:19:19.424Z,0.10
2022-09-14T10:20:19.380Z,0.20
2022-09-14T10:21:19.340Z,0.30
2022-09-14T10:22:24.282Z,0.20
2022-09-14T10:23:19.426Z,0.10
2022-09-14T10:24:19.207Z,0.20
2022-09-14T10:25:19.163Z,0.20
2022-09-14T10:26:19.122Z,0.20
2022-09-14T10:27:19.076Z,0.10
2022-09-14T10:28:19.032Z,0.30
2022-09-14T10:29:18.990Z,0.20
2022-09-14T10:30:18.945Z,0.10
2022-09-14T10:31:18.982Z,0.20
2022-09-14T10:32:18.857Z,0.20
2022-09-14T10:33:18.899Z,0.20
2022-09-14T10:34:18.770Z,0.20
2022-09-14T10:35:18.730Z,0.20
2022-09-14T10:36:18.689Z,0.20
2022-09-14T10:37:18.661Z,0.30
2022-09-14T10:38:18.604Z,0.10
2022-09-14T10:39:21.127Z,0.20
2022-09-14T10:40:18.574Z,0.20
2022-09-14T10:41:18.468Z,0.20
2022-09-14T10:42:18.423Z,0.10
2022-09-14T10:43:18.382Z,0.20
2022-09-14T10:44:18.334Z,0.20
2022-09-14T10:45:18.293Z,0.20
2022-09-14T10:46:18.314Z,0.10
2022-09-14T10:47:18.207Z,0.10
2022-09-14T10:48:18.162Z,0.30
2022-09-14T10:49:18.124Z,0.20
2022-09-14T10:50:18.074Z,0.20
2022-09-14T10:51:18.032Z,0.20
2022-09-14T10:52:17.986Z,0.30
2022-09-14T10:53:17.989Z,0.20
2022-09-14T10:54:17.898Z,0.10
2022-09-14T10:55:17.878Z,0.20
2022-09-14T10:56:17.812Z,0.20
2022-09-14T10:57:17.773Z,0.20
2022-09-14T10:58:21.320Z,0.50
2022-09-14T10:59:17.685Z,0.10
2022-09-14T11:00:17.640Z,0.20
2022-09-14T11:01:17.652Z,0.20
2022-09-14T11:02:17.664Z,0.10
2022-09-14T11:03:17.566Z,0.10
2022-09-14T11:04:17.480Z,0.20
2022-09-14T11:05:17.427Z,0.20
2022-09-14T11:06:17.379Z,0.10
2022-09-14T11:07:17.336Z,0.20
2022-09-14T11:08:17.293Z,0.20
2022-09-14T11:09:17.250Z,0.20
2022-09-14T11:10:17.206Z,0.10
2022-09-14T11:11:17.198Z,0.10
2022-09-14T11:12:17.116Z,0.30
2022-09-14T11:13:17.075Z,0.20
2022-09-14T11:14:17.029Z,0.10
2022-09-14T11:15:16.986Z,0.10
2022-09-14T11:16:17.022Z,0.20
2022-09-14T11:17:16.901Z,0.30
2022-09-14T11:18:17.664Z,0.10
2022-09-14T11:19:16.812Z,0.20
2022-09-14T11:20:16.769Z,0.20
2022-09-14T11:21:16.727Z,0.20
2022-09-14T11:22:16.680Z,0.10
2022-09-14T11:23:16.639Z,0.20
2022-09-14T11:24:16.595Z,0.20
2022-09-14T11:25:16.553Z,0.20
2022-09-14T11:26:16.507Z,0.10
2022-09-14T11:27:16.483Z,0.10
2022-09-14T11:28:16.421Z,0.20
2022-09-14T11:29:16.376Z,0.20
2022-09-14T11:30:16.332Z,0.10
2022-09-14T11:31:16.364Z,0.20
2022-09-14T11:32:21.277Z,0.20
2022-09-14T11:33:16.208Z,0.20
2022-09-14T11:34:16.163Z,0.10
2022-09-14T11:35:16.133Z,0.30
2022-09-14T11:36:16.073Z,0.20
2022-09-14T11:37:16.031Z,0.20
2022-09-14T11:39:15.939Z,0.20
2022-09-14T11:40:16.020Z,0.30
2022-09-14T11:41:15.854Z,0.20
2022-09-14T11:42:15.815Z,0.20
2022-09-14T11:43:15.782Z,0.20
2022-09-14T11:44:15.726Z,0.20
2022-09-14T11:45:15.679Z,0.20
2022-09-14T11:46:15.708Z,0.20
2022-09-14T11:47:15.592Z,0.10
2022-09-14T11:48:41.243Z,0.20
2022-09-14T11:49:15.505Z,0.10
2022-09-14T11:50:15.466Z,0.10
2022-09-14T11:51:15.496Z,0.20
2022-09-14T11:52:15.375Z,0.20
2022-09-14T11:53:15.344Z,0.10
2022-09-14T11:54:15.289Z,0.10
2022-09-14T11:55:15.250Z,0.20
2022-09-14T11:56:15.200Z,0.20
2022-09-14T11:57:15.157Z,0.20
2022-09-14T11:58:15.110Z,0.10
2022-09-14T11:59:15.107Z,0.20
2022-09-14T12:00:15.023Z,0.20
2022-09-14T12:01:14.983Z,0.10
2022-09-14T12:02:14.970Z,0.10
2022-09-14T12:03:14.944Z,0.20
2022-09-14T12:04:14.976Z,0.20
2022-09-14T12:05:14.812Z,0.20
2022-09-14T12:06:14.765Z,0.10
2022-09-14T12:07:14.719Z,0.30
2022-09-14T12:08:14.675Z,0.10
2022-09-14T12:09:14.637Z,0.20
2022-09-14T12:10:14.594Z,0.30
2022-09-14T12:11:14.548Z,0.20
2022-09-14T12:12:14.505Z,0.10
2022-09-14T12:13:14.463Z,0.20
2022-09-14T12:14:14.414Z,0.20
2022-09-14T12:15:14.431Z,0.20
2022-09-14T12:16:14.385Z,0.20
2022-09-14T12:17:35.788Z,0.20
2022-09-14T12:18:14.242Z,0.20
2022-09-14T12:19:14.195Z,0.20
2022-09-14T12:20:17.269Z,0.20
2022-09-14T12:21:14.109Z,0.20
2022-09-14T12:22:14.065Z,0.20
2022-09-14T12:23:14.045Z,0.10
2022-09-14T12:24:13.982Z,0.20
2022-09-14T12:25:13.937Z,0.20
2022-09-14T12:26:13.891Z,0.20
2022-09-14T12:27:13.849Z,0.20
2022-09-14T12:28:13.800Z,0.20
2022-09-14T12:30:13.716Z,0.10
2022-09-14T12:31:13.753Z,0.20
2022-09-14T12:32:13.626Z,0.20
2022-09-14T12:33:13.580Z,0.20
2022-09-14T12:34:13.545Z,0.20
2022-09-14T12:35:13.494Z,0.20
2022-09-14T12:36:13.451Z,0.20
2022-09-14T12:37:13.405Z,0.10
2022-09-14T12:38:13.365Z,0.20
2022-09-14T12:39:13.322Z,0.20
2022-09-14T12:40:13.332Z,0.10
2022-09-14T12:41:13.235Z,0.10
2022-09-14T12:42:13.191Z,0.20
2022-09-14T12:43:13.142Z,0.20
2022-09-14T12:44:13.105Z,0.10
2022-09-14T12:45:13.063Z,0.20
2022-09-14T12:46:13.104Z,0.30
2022-09-14T12:47:12.986Z,0.10
2022-09-14T12:48:12.927Z,0.20
2022-09-14T12:49:12.881Z,0.30
2022-09-14T12:50:12.840Z,0.10
2022-09-14T12:51:12.793Z,0.20
2022-09-14T12:52:12.750Z,0.20
2022-09-14T12:53:12.710Z,0.20
2022-09-14T12:54:12.665Z,0.10
2022-09-14T12:55:12.615Z,0.20
2022-09-14T12:56:12.596Z,0.20
2022-09-14T12:57:12.530Z,0.10
2022-09-14T12:58:12.489Z,0.20
2022-09-14T12:59:12.440Z,0.30
2022-09-14T13:00:12.398Z,0.10
2022-09-14T13:01:12.462Z,0.20
2022-09-14T13:02:12.457Z,0.20
2022-09-14T13:03:12.292Z,0.20
2022-09-14T13:04:12.222Z,0.20
2022-09-14T13:05:12.179Z,0.20
2022-09-14T13:06:12.134Z,0.20
2022-09-14T13:07:12.088Z,0.20
2022-09-14T13:08:55.376Z,0.20
2022-09-14T13:09:55.351Z,0.10
2022-09-14T13:10:55.297Z,0.10
2022-09-14T13:11:55.248Z,0.20
2022-09-14T13:12:55.203Z,0.20
2022-09-14T13:13:55.160Z,0.10
2022-09-14T13:14:55.175Z,0.20
2022-09-14T13:15:55.190Z,0.20
2022-09-14T13:16:55.028Z,0.10
2022-09-14T13:17:54.989Z,0.20
2022-09-14T13:18:55.003Z,0.20
2022-09-14T13:19:54.904Z,0.10
2022-09-14T13:20:54.850Z,0.10
2022-09-14T13:21:54.816Z,0.30
2022-09-14T13:22:54.771Z,0.20
2022-09-14T13:23:54.720Z,0.10
2022-09-14T13:24:54.675Z,0.20
2022-09-14T13:25:54.633Z,0.20